Time;durP1;ratioP1;P1;durP2;ratioP2;P2;SDS_P1;SDS_P2;PMS_P1;PMS_P2;Temp;Humidity;BMP_temperature;BMP_pressure;BME280_temperature;BME280_humidity;BME280_pressure;Samples;Min_cycle;Max_cycle;Signal;HPM_P1;HPM_P2
2022/10/28 00:01:41;;;;;;;4.05;2.10;;;10.10;99.90;;;;;;6073165;23;20022;-92
2022/10/28 00:04:09;;;;;;;6.35;3.40;;;9.90;99.90;;;;;;6072666;23;20033;-92
2022/10/28 00:06:36;;;;;;;2.47;2.28;;;9.90;99.90;;;;;;6095265;23;20331;-93
2022/10/28 00:09:04;;;;;;;3.83;2.75;;;9.90;99.90;;;;;;6072790;23;20026;-92
2022/10/28 00:11:37;;;;;;;14.32;3.47;;;10.10;99.90;;;;;;6073490;23;20028;-93
2022/10/28 00:14:06;;;;;;;2.50;2.30;;;10.10;99.90;;;;;;6050682;23;20022;-93
2022/10/28 00:16:36;;;;;;;2.28;2.05;;;9.80;99.90;;;;;;6073083;23;20023;-93
2022/10/28 00:19:09;;;;;;;3.85;2.35;;;9.50;99.90;;;;;;6072552;23;20541;-93
2022/10/28 00:21:38;;;;;;;5.13;2.20;;;9.20;99.90;;;;;;6073438;23;20014;-93
2022/10/28 00:24:07;;;;;;;2.50;2.30;;;9.20;99.90;;;;;;6072610;23;20029;-92
2022/10/28 00:26:36;;;;;;;4.60;2.80;;;9.10;99.90;;;;;;6073225;23;20015;-92
2022/10/28 00:29:06;;;;;;;3.75;1.83;;;9.10;99.90;;;;;;6074059;23;20450;-93
2022/10/28 00:31:35;;;;;;;4.63;2.17;;;9.00;99.90;;;;;;6072963;23;20045;-93
2022/10/28 00:34:05;;;;;;;7.28;3.05;;;9.10;99.90;;;;;;6073524;23;20049;-93
2022/10/28 00:36:36;;;;;;;4.00;2.38;;;9.10;99.90;;;;;;6072097;23;20343;-92
2022/10/28 00:39:13;;;;;;;2.05;1.95;;;9.10;99.90;;;;;;6072384;23;20030;-92
2022/10/28 00:41:44;;;;;;;3.97;2.30;;;9.00;99.90;;;;;;6073069;23;20014;-92
2022/10/28 00:44:37;;;;;;;3.88;2.55;;;9.00;99.90;;;;;;6072779;23;20022;-91
2022/10/28 00:47:50;;;;;;;6.28;3.42;;;9.00;99.90;;;;;;6102771;23;20021;-92
2022/10/28 00:50:31;;;;;;;2.45;2.25;;;9.00;99.90;;;;;;6033733;23;20019;-92
2022/10/28 00:53:07;;;;;;;4.72;2.85;;;9.10;99.90;;;;;;6072889;23;20021;-93
2022/10/28 00:55:36;;;;;;;4.35;1.98;;;9.20;99.90;;;;;;6072141;23;20362;-93
2022/10/28 00:58:07;;;;;;;8.68;2.80;;;9.20;99.90;;;;;;6072464;23;20022;-92
2022/10/28 01:00:34;;;;;;;3.47;2.03;;;9.10;99.90;;;;;;6060477;23;20475;-88
2022/10/28 01:03:02;;;;;;;2.95;2.13;;;9.00;99.90;;;;;;6059061;23;20469;-88
2022/10/28 01:05:33;;;;;;;3.95;2.80;;;9.00;99.90;;;;;;6067295;23;20030;-93
2022/10/28 01:08:03;;;;;;;4.47;2.55;;;9.10;99.90;;;;;;6019916;23;20023;-92
2022/10/28 01:15:19;;;;;;;3.00;2.33;;;9.00;99.90;;;;;;6067636;23;20066;-92
2022/10/28 01:17:57;;;;;;;3.08;2.45;;;8.70;99.90;;;;;;6053759;23;20350;-92
2022/10/28 01:20:52;;;;;;;10.77;2.83;;;8.60;99.90;;;;;;6020516;23;20348;-92
2022/10/28 01:23:34;;;;;;;6.53;2.40;;;8.70;99.90;;;;;;6043189;23;20057;-93
2022/10/28 01:26:25;;;;;;;3.42;3.13;;;8.90;99.90;;;;;;6067466;23;20030;-91
2022/10/28 01:29:16;;;;;;;2.22;2.03;;;8.90;99.90;;;;;;6031690;23;20054;-92
2022/10/28 01:32:02;;;;;;;4.53;3.67;;;8.70;99.90;;;;;;6009140;23;20034;-91
2022/10/28 01:34:35;;;;;;;4.82;2.20;;;8.60;99.90;;;;;;6066424;23;20030;-92
2022/10/28 01:37:30;;;;;;;10.93;2.55;;;8.50;99.90;;;;;;6019843;23;20029;-92
2022/10/28 01:40:19;;;;;;;4.32;2.65;;;8.50;99.90;;;;;;6019573;23;20493;-92
2022/10/28 01:42:56;;;;;;;3.10;2.83;;;8.50;99.90;;;;;;6042815;23;20022;-93
2022/10/28 01:45:58;;;;;;;3.05;2.25;;;8.50;99.90;;;;;;6067731;23;20030;-92
2022/10/28 01:48:55;;;;;;;5.05;2.08;;;8.50;99.90;;;;;;6066872;23;20350;-92
2022/10/28 01:51:55;;;;;;;4.65;3.30;;;8.60;99.90;;;;;;6045277;23;20023;-92
2022/10/28 02:38:10;;;;;;;2.38;2.17;;;9.60;99.90;;;;;;6096727;23;20029;-91
2022/10/28 02:40:38;;;;;;;4.68;1.90;;;9.60;99.90;;;;;;6053303;23;20029;-91
2022/10/28 02:43:09;;;;;;;10.32;2.45;;;9.70;99.90;;;;;;6052650;23;20029;-91
2022/10/28 02:45:42;;;;;;;;;;;9.60;99.90;;;;;;6054222;23;20315;-91
2022/10/28 02:48:27;;;;;;;5.53;2.90;;;9.60;99.90;;;;;;6076816;23;19917;-91
2022/10/28 02:51:05;;;;;;;2.75;2.20;;;9.60;99.90;;;;;;6052345;23;20856;-91
2022/10/28 02:53:51;;;;;;;2.22;1.92;;;9.70;99.90;;;;;;6053917;23;20020;-91
2022/10/28 03:00:30;;;;;;;3.80;2.53;;;9.70;99.90;;;;;;6102281;23;20029;-91
2022/10/28 03:02:57;;;;;;;5.43;2.53;;;9.70;99.90;;;;;;6078208;23;20022;-91
2022/10/28 03:05:25;;;;;;;3.85;2.70;;;9.70;99.90;;;;;;6113013;23;20010;-90
2022/10/28 03:07:53;;;;;;;4.10;1.85;;;9.60;99.90;;;;;;6053885;23;20026;-91
2022/10/28 03:10:21;;;;;;;2.40;2.15;;;9.50;99.90;;;;;;6077767;23;20018;-91
2022/10/28 03:12:51;;;;;;;5.75;2.83;;;9.30;99.90;;;;;;6078526;23;20022;-92
2022/10/28 03:15:19;;;;;;;6.13;2.42;;;9.30;99.90;;;;;;6101670;23;20343;-90
2022/10/28 03:17:46;;;;;;;4.43;1.70;;;9.30;99.90;;;;;;6078779;23;20014;-91
2022/10/28 03:20:16;;;;;;;2.08;1.88;;;9.20;99.90;;;;;;6077970;23;20022;-91
2022/10/28 03:22:45;;;;;;;3.10;2.17;;;9.20;99.90;;;;;;6077262;23;20022;-91
2022/10/28 03:25:13;;;;;;;6.07;2.20;;;9.10;99.90;;;;;;6055606;23;20021;-92
2022/10/28 03:27:40;;;;;;;2.53;2.25;;;9.20;99.90;;;;;;6078384;23;20021;-91
2022/10/28 03:30:08;;;;;;;2.78;1.92;;;9.30;99.90;;;;;;6078866;23;20014;-91
2022/10/28 03:32:36;;;;;;;3.67;2.50;;;9.30;99.90;;;;;;6054309;23;20457;-92
2022/10/28 03:35:05;;;;;;;5.32;2.40;;;9.20;99.90;;;;;;6078395;23;20014;-92
2022/10/28 03:37:33;;;;;;;7.32;2.97;;;9.20;99.90;;;;;;6078756;23;20311;-91
2022/10/28 03:40:01;;;;;;;8.80;2.45;;;9.20;99.90;;;;;;6077819;23;20022;-91
2022/10/28 03:42:29;;;;;;;2.60;2.17;;;9.40;99.90;;;;;;6053122;23;20029;-92
2022/10/28 03:44:57;;;;;;;3.47;2.10;;;9.50;99.90;;;;;;6078693;23;20022;-91
2022/10/28 03:47:24;;;;;;;3.90;2.33;;;9.50;99.90;;;;;;6081555;23;20026;-91
2022/10/28 03:49:52;;;;;;;7.43;2.35;;;9.50;99.90;;;;;;6102502;23;20022;-91
2022/10/28 03:52:20;;;;;;;2.15;1.90;;;9.50;99.90;;;;;;6077873;23;20026;-91
2022/10/28 03:54:48;;;;;;;4.80;2.00;;;9.50;99.90;;;;;;6077695;23;20468;-90
2022/10/28 03:57:15;;;;;;;3.15;2.22;;;9.50;99.90;;;;;;6102215;23;20018;-90
2022/10/28 03:59:43;;;;;;;2.47;2.28;;;9.60;99.90;;;;;;6077142;23;20349;-91
2022/10/28 04:02:33;;;;;;;;;;;;;;;;;;;;;
2022/10/28 04:05:49;;;;;;;1.73;1.63;;;9.50;99.90;;;;;;6089028;23;20037;-83
2022/10/28 04:08:18;;;;;;;2.13;1.60;;;9.60;99.90;;;;;;6077397;23;20033;-84
2022/10/28 04:10:47;;;;;;;2.38;2.17;;;9.60;99.90;;;;;;6132530;23;20018;-84
2022/10/28 04:13:16;;;;;;;6.20;2.38;;;9.60;99.90;;;;;;6136579;23;20017;-83
2022/10/28 04:15:43;;;;;;;2.40;1.80;;;9.70;99.90;;;;;;6100187;23;20324;-84
2022/10/28 04:18:11;;;;;;;4.18;2.47;;;9.60;99.90;;;;;;6099826;23;20022;-83
2022/10/28 04:20:39;;;;;;;2.30;2.10;;;9.60;99.90;;;;;;6100669;23;20025;-83
2022/10/28 04:23:07;;;;;;;9.23;2.00;;;9.60;99.90;;;;;;6052003;23;20018;-83
2022/10/28 04:25:39;;;;;;;2.45;2.25;;;9.50;99.90;;;;;;6136082;23;20337;-83
2022/10/28 04:28:07;;;;;;;5.45;2.40;;;9.30;99.90;;;;;;6075148;23;20025;-84
2022/10/28 04:30:34;;;;;;;3.85;2.72;;;9.20;99.90;;;;;;6107963;23;20029;-83
2022/10/28 04:33:02;;;;;;;2.13;1.90;;;9.20;99.90;;;;;;6136567;23;20330;-83
2022/10/28 04:35:29;;;;;;;2.25;2.03;;;9.10;99.90;;;;;;6130244;23;20022;-83
2022/10/28 04:37:57;;;;;;;8.35;2.47;;;9.20;99.90;;;;;;6124672;23;20026;-83
2022/10/28 04:40:24;;;;;;;11.52;3.85;;;9.40;99.90;;;;;;6098635;23;20025;-83
2022/10/28 04:42:52;;;;;;;1.88;1.48;;;9.50;99.90;;;;;;6132388;23;20021;-83
2022/10/28 04:45:20;;;;;;;3.13;1.85;;;9.60;99.90;;;;;;6076790;23;20029;-84
2022/10/28 04:47:47;;;;;;;2.45;2.03;;;9.60;99.90;;;;;;6125804;23;20461;-83
2022/10/28 04:50:15;;;;;;;4.43;3.05;;;9.60;99.90;;;;;;6099364;23;20472;-85
2022/10/28 04:52:53;;;;;;;2.08;1.90;;;9.60;99.90;;;;;;6099823;23;20022;-86
2022/10/28 05:00:29;;;;;;;6.43;2.00;;;9.60;99.90;;;;;;6121368;23;20079;-86
2022/10/28 05:27:18;;;;;;;2.42;2.33;;;9.50;99.90;;;;;;6092739;23;20030;-85
2022/10/28 05:44:10;;;;;;;1.80;1.70;;;9.40;99.90;;;;;;5950760;24;20020;-87
2022/10/28 08:33:52;;;;;;;2.10;1.73;;;14.40;99.90;;;;;;6075097;23;20030;31
2022/10/28 08:36:23;;;;;;;;;;;14.80;99.90;;;;;;6052813;23;20022;-85
2022/10/28 08:49:33;;;;;;;7.40;1.63;;;15.20;99.90;;;;;;6086318;23;20030;-89
2022/10/28 08:53:23;;;;;;;3.60;2.25;;;15.40;99.90;;;;;;6136759;23;20266;-88
2022/10/28 11:48:25;;;;;;;8.95;1.35;;;20.00;99.90;;;;;;6081155;23;20026;-84
2022/10/28 11:51:21;;;;;;;3.60;1.08;;;19.90;99.90;;;;;;6047083;23;20018;-88
2022/10/28 11:54:16;;;;;;;6.45;2.58;;;19.90;99.90;;;;;;6086761;23;20015;-87
2022/10/28 11:57:31;;;;;;;1.08;0.98;;;20.20;99.90;;;;;;6047567;23;20023;-85
2022/10/28 12:00:22;;;;;;;3.60;1.65;;;20.50;99.90;;;;;;5964840;23;20035;-94
2022/10/28 12:03:38;;;;;;;2.65;2.38;;;20.60;99.90;;;;;;6078956;23;20022;-80
2022/10/28 12:06:53;;;;;;;4.70;2.72;;;20.50;99.90;;;;;;6048079;23;20014;-86
2022/10/28 12:10:03;;;;;;;3.08;1.40;;;20.30;99.90;;;;;;5971723;23;20501;-85
2022/10/28 12:12:57;;;;;;;2.42;2.22;;;20.50;99.90;;;;;;5994611;23;20067;-84
2022/10/28 12:16:17;;;;;;;2.83;1.80;;;20.50;99.90;;;;;;5986816;23;20030;-84
2022/10/28 12:19:23;;;;;;;1.25;1.13;;;20.50;99.90;;;;;;5981065;23;20031;-84
2022/10/28 12:22:11;;;;;;;4.63;1.65;;;20.70;99.90;;;;;;5964121;23;20569;-83
2022/10/28 12:25:03;;;;;;;1.80;1.10;;;20.70;99.90;;;;;;5994158;23;20091;-84
2022/10/28 12:27:43;;;;;;;2.40;1.67;;;20.70;99.90;;;;;;5966725;23;20024;-86
2022/10/28 12:30:26;;;;;;;8.07;1.73;;;20.70;99.90;;;;;;5982874;23;20124;-84
2022/10/28 12:33:04;;;;;;;5.30;1.60;;;20.80;99.90;;;;;;6017005;23;20039;-85
2022/10/28 12:35:59;;;;;;;5.05;1.33;;;20.60;99.90;;;;;;6010908;23;20027;-83
2022/10/28 12:39:11;;;;;;;2.47;1.20;;;20.40;99.90;;;;;;6015481;23;20027;-85
2022/10/28 12:42:44;;;;;;;3.45;2.15;;;20.50;99.90;;;;;;6073919;23;20014;-84
2022/10/28 12:45:47;;;;;;;1.95;1.60;;;20.50;99.90;;;;;;6036176;23;20026;-84
2022/10/28 12:48:53;;;;;;;7.35;1.70;;;20.50;99.90;;;;;;6083118;23;20350;-84
2022/10/28 12:52:24;;;;;;;1.85;1.33;;;20.60;99.90;;;;;;5998310;23;20024;-84
2022/10/28 12:55:11;;;;;;;10.57;4.35;;;20.80;99.90;;;;;;5959540;23;20019;-84
2022/10/28 12:58:07;;;;;;;4.68;1.50;;;20.70;99.90;;;;;;6009219;23;20024;-79
2022/10/28 13:00:40;;;;;;;19.42;4.78;;;20.80;99.90;;;;;;6006704;23;20031;-82
2022/10/28 13:03:13;;;;;;;3.35;1.83;;;20.70;99.90;;;;;;6007812;23;20035;-82
2022/10/28 13:05:48;;;;;;;18.90;2.58;;;20.80;99.90;;;;;;6016961;23;20039;-86
2022/10/28 13:08:35;;;;;;;14.75;2.67;;;21.00;99.90;;;;;;6007994;23;20491;-81
2022/10/28 13:11:33;;;;;;;2.25;1.83;;;21.10;99.90;;;;;;6013203;23;20465;-82
2022/10/28 13:14:38;;;;;;;2.08;1.65;;;21.00;99.90;;;;;;6007781;23;20024;-82
2022/10/28 13:17:20;;;;;;;5.20;1.77;;;21.10;99.90;;;;;;6016062;23;20031;-81
2022/10/28 13:19:57;;;;;;;4.22;1.67;;;21.20;99.90;;;;;;6010393;23;20020;-82
2022/10/28 13:22:51;;;;;;;6.50;1.50;;;21.20;99.90;;;;;;6015885;23;20048;-82
2022/10/28 13:25:40;;;;;;;1.70;1.60;;;21.10;99.90;;;;;;6112063;23;20018;-82
2022/10/28 13:28:20;;;;;;;3.03;2.45;;;20.90;99.90;;;;;;6126983;23;20029;-82
2022/10/28 13:30:56;;;;;;;1.40;1.35;;;20.80;99.90;;;;;;6132541;23;20018;-82
2022/10/28 13:33:26;;;;;;;1.90;1.25;;;20.70;99.90;;;;;;6135497;23;20018;-82
2022/10/28 13:36:06;;;;;;;4.97;1.45;;;20.60;99.90;;;;;;6127715;23;20033;-81
2022/10/28 13:38:35;;;;;;;4.50;1.05;;;20.50;99.90;;;;;;6133146;23;20018;-82
2022/10/28 13:41:09;;;;;;;11.95;2.13;;;20.40;99.90;;;;;;6134681;23;20021;-82
2022/10/28 13:44:10;;;;;;;1.98;1.65;;;20.40;99.90;;;;;;6128717;23;20029;-82
2022/10/28 13:46:57;;;;;;;3.67;1.48;;;20.50;99.90;;;;;;6132171;23;20021;-81
2022/10/28 13:49:29;;;;;;;4.15;2.40;;;20.70;99.90;;;;;;6128675;23;20025;-82
2022/10/28 13:52:05;;;;;;;4.82;1.23;;;20.80;99.90;;;;;;6126928;23;20026;-82
2022/10/28 13:54:41;;;;;;;4.38;2.30;;;21.00;99.90;;;;;;6132802;23;20025;-82
2022/10/28 13:57:26;;;;;;;2.05;1.85;;;21.30;99.90;;;;;;6134425;23;20025;-82
2022/10/28 13:59:59;;;;;;;3.03;2.83;;;21.40;99.90;;;;;;6127720;23;20029;-82
2022/10/28 14:02:39;;;;;;;4.85;1.40;;;21.60;99.90;;;;;;6133188;23;20021;-82
2022/10/28 14:05:09;;;;;;;4.97;1.33;;;21.50;99.90;;;;;;6134967;23;20010;-82
2022/10/28 14:07:50;;;;;;;3.83;1.40;;;21.40;99.90;;;;;;6128489;23;20446;-81
2022/10/28 14:10:27;;;;;;;3.42;1.83;;;21.30;99.90;;;;;;6133547;23;20021;-81
2022/10/28 14:13:17;;;;;;;2.90;2.05;;;21.30;99.90;;;;;;6134658;23;20616;-81
2022/10/28 14:15:46;;;;;;;2.10;1.58;;;21.30;99.90;;;;;;6128169;23;20209;-81
2022/10/28 14:18:16;;;;;;;1.73;1.63;;;21.20;99.90;;;;;;6133573;23;20457;-81
2022/10/28 14:21:04;;;;;;;9.32;1.67;;;21.10;99.90;;;;;;6131598;23;20021;-85
2022/10/28 14:23:32;;;;;;;1.30;1.20;;;20.80;99.90;;;;;;6094910;23;20026;-87
2022/10/28 14:26:03;;;;;;;2.72;1.92;;;20.70;99.90;;;;;;6075436;23;20072;-87
2022/10/28 14:28:30;;;;;;;13.75;6.90;;;20.50;99.90;;;;;;6089516;23;20037;-88
2022/10/28 14:31:11;;;;;;;;;;;20.40;99.90;;;;;;6044933;23;20035;-87
2022/10/28 14:33:41;;;;;;;3.47;2.30;;;20.20;99.90;;;;;;6077360;23;19922;-87
2022/10/28 14:36:18;;;;;;;4.18;2.40;;;20.10;99.90;;;;;;6065507;23;20034;-86
2022/10/28 14:39:23;;;;;;;1.38;1.20;;;19.90;99.90;;;;;;6041605;23;20023;-88
2022/10/28 14:42:29;;;;;;;2.28;2.13;;;19.90;99.90;;;;;;6042098;23;20347;-87
2022/10/28 14:45:30;;;;;;;7.40;1.67;;;19.70;99.90;;;;;;6031614;23;20023;-88
2022/10/28 14:48:16;;;;;;;;;;;19.60;99.90;;;;;;6069492;23;20025;-86
2022/10/28 14:50:50;;;;;;;1.58;1.42;;;19.60;99.90;;;;;;6074321;23;19918;-91
2022/10/28 14:53:32;;;;;;;2.63;1.10;;;19.50;99.90;;;;;;6077224;23;20440;-86
2022/10/28 14:56:08;;;;;;;1.58;1.35;;;19.50;99.90;;;;;;6091935;23;20031;-87
2022/10/28 14:58:41;;;;;;;4.45;1.60;;;19.40;99.90;;;;;;6042977;23;20601;-86
2022/10/28 15:01:17;;;;;;;5.03;1.48;;;19.40;99.90;;;;;;6066982;23;20023;-86
2022/10/28 15:03:52;;;;;;;1.63;1.33;;;19.40;99.90;;;;;;6070765;23;20033;-86
2022/10/28 15:06:25;;;;;;;3.90;1.30;;;19.30;99.90;;;;;;6077370;23;20034;-86
2022/10/28 15:08:54;;;;;;;2.10;1.73;;;19.20;99.90;;;;;;6078957;23;20015;-86
2022/10/28 15:11:24;;;;;;;1.55;1.13;;;19.10;99.90;;;;;;6066517;23;20030;-87
2022/10/28 15:13:52;;;;;;;;;;;18.90;99.90;;;;;;6079020;23;20029;-88
2022/10/28 15:16:21;;;;;;;16.13;2.83;;;18.60;99.90;;;;;;6069551;23;20227;-86
2022/10/28 15:18:51;;;;;;;3.92;2.88;;;18.60;99.90;;;;;;6075460;23;20328;-85
2022/10/28 15:21:20;;;;;;;7.25;1.27;;;18.50;99.90;;;;;;6080634;23;20026;-86
2022/10/28 15:24:01;;;;;;;4.32;1.23;;;18.40;99.90;;;;;;6097968;23;20026;-86
2022/10/28 15:26:28;;;;;;;3.75;1.17;;;18.40;99.90;;;;;;6103768;23;20041;-86
2022/10/28 15:28:56;;;;;;;1.83;1.10;;;18.30;99.90;;;;;;6107526;23;20018;-85
2022/10/28 15:31:23;;;;;;;5.82;2.60;;;18.20;99.90;;;;;;6101639;23;20041;-85
2022/10/28 15:34:18;;;;;;;1.48;1.08;;;18.20;99.90;;;;;;6107377;23;20446;-86
2022/10/28 15:36:48;;;;;;;7.00;1.65;;;18.00;99.90;;;;;;6079512;23;20031;-91
2022/10/28 15:39:23;;;;;;;5.13;1.50;;;17.90;99.90;;;;;;6102164;23;20466;-91
2022/10/28 15:41:56;;;;;;;3.28;1.63;;;17.60;99.90;;;;;;6106722;23;20442;-88
2022/10/28 15:44:33;;;;;;;14.00;3.17;;;17.20;99.90;;;;;;6096361;23;20637;-85
2022/10/28 15:47:15;;;;;;;10.38;2.20;;;17.20;99.90;;;;;;6097041;23;20424;-86
2022/10/28 15:49:44;;;;;;;3.08;2.05;;;17.00;99.90;;;;;;6107340;23;20022;-87
2022/10/28 15:52:52;;;;;;;3.92;1.45;;;16.90;99.90;;;;;;6098460;23;20485;-87
2022/10/28 15:55:38;;;;;;;3.40;2.28;;;16.80;99.90;;;;;;6101436;23;20037;-89
2022/10/28 16:06:37;;;;;;;5.80;1.65;;;16.10;99.90;;;;;;6068823;23;20026;-85
2022/10/28 16:09:14;;;;;;;2.67;2.13;;;15.70;99.90;;;;;;6031805;23;20053;-86
2022/10/28 16:11:48;;;;;;;4.60;2.03;;;15.80;99.90;;;;;;6071004;23;20034;-84
2022/10/28 16:14:40;;;;;;;2.88;2.05;;;15.70;99.90;;;;;;6077165;23;20022;-84
2022/10/28 16:49:49;;;;;;;9.35;2.00;;;15.00;99.90;;;;;;6023072;23;20030;-89
2022/10/28 16:52:28;;;;;;;5.00;2.75;;;15.10;99.90;;;;;;6052221;23;20494;-82
2022/10/28 16:54:57;;;;;;;4.15;1.65;;;15.10;99.90;;;;;;6048350;23;20069;-82
2022/10/28 16:57:26;;;;;;;1.58;1.40;;;15.10;99.90;;;;;;6018557;23;20026;-80
2022/10/28 16:59:54;;;;;;;1.05;1.00;;;15.10;99.90;;;;;;6070354;23;20459;-82
2022/10/28 17:02:30;;;;;;;3.60;1.92;;;14.70;99.90;;;;;;6075410;23;20015;-78
2022/10/28 17:04:59;;;;;;;4.82;2.38;;;14.40;99.90;;;;;;6076271;23;20015;-82
2022/10/28 17:07:28;;;;;;;8.38;2.50;;;14.30;99.90;;;;;;6071538;23;20034;-85
2022/10/28 17:09:55;;;;;;;7.05;2.72;;;14.30;99.90;;;;;;6043058;23;20041;-81
2022/10/28 17:12:25;;;;;;;3.28;1.95;;;14.30;99.90;;;;;;6071584;23;20030;-82
2022/10/28 17:14:53;;;;;;;3.05;2.13;;;14.40;99.90;;;;;;6070895;23;20033;-83
2022/10/28 17:17:20;;;;;;;4.05;1.77;;;14.40;99.90;;;;;;6080799;23;20631;-82
2022/10/28 17:19:48;;;;;;;2.72;1.67;;;14.50;99.90;;;;;;6074266;23;20031;-82
2022/10/28 17:22:16;;;;;;;2.00;1.85;;;14.40;99.90;;;;;;6105462;23;20636;-83
2022/10/28 17:24:43;;;;;;;5.10;2.35;;;14.50;99.90;;;;;;6071142;23;20026;-81
2022/10/28 17:27:11;;;;;;;4.18;1.98;;;14.40;99.90;;;;;;6075952;23;20026;-82
2022/10/28 17:29:39;;;;;;;6.80;2.40;;;14.40;99.90;;;;;;6081125;23;20014;-82
2022/10/28 17:32:09;;;;;;;5.85;2.25;;;14.30;99.90;;;;;;6070414;23;20339;-82
2022/10/28 17:34:37;;;;;;;2.20;1.70;;;14.20;99.90;;;;;;6104466;23;20015;-83
2022/10/28 17:37:04;;;;;;;2.90;2.38;;;14.20;99.90;;;;;;6070671;23;20027;-82
2022/10/28 17:39:32;;;;;;;15.15;3.28;;;14.20;99.90;;;;;;6051558;23;20018;-83
2022/10/28 17:42:00;;;;;;;3.65;2.45;;;14.30;99.90;;;;;;6080630;23;20029;-83
2022/10/28 17:44:27;;;;;;;2.75;2.55;;;14.30;99.90;;;;;;6096676;23;20026;-82
2022/10/28 17:46:58;;;;;;;3.83;3.13;;;14.40;99.90;;;;;;6088712;23;20042;-85
2022/10/28 17:49:28;;;;;;;7.13;3.38;;;14.30;99.90;;;;;;6106210;23;20018;-83
2022/10/28 17:51:57;;;;;;;4.30;2.42;;;14.30;99.90;;;;;;6098559;23;20037;-83
2022/10/28 17:54:24;;;;;;;2.88;2.63;;;14.40;99.90;;;;;;6104259;23;20022;-82
2022/10/28 17:56:55;;;;;;;3.80;3.10;;;14.00;99.90;;;;;;6105633;23;20366;-83
2022/10/28 17:59:25;;;;;;;3.05;2.78;;;13.70;99.90;;;;;;6046826;23;20026;-84
2022/10/28 18:01:55;;;;;;;11.43;4.13;;;13.50;99.90;;;;;;6106268;23;20015;-84
2022/10/28 18:04:25;;;;;;;5.55;2.47;;;13.40;99.90;;;;;;6022929;23;20030;-84
2022/10/28 18:06:54;;;;;;;5.60;2.60;;;13.50;99.90;;;;;;6077013;23;20026;-83
2022/10/28 18:09:23;;;;;;;6.50;2.05;;;13.80;99.90;;;;;;6106395;23;20454;-84
2022/10/28 18:11:51;;;;;;;11.65;2.17;;;14.10;99.90;;;;;;6045857;23;20030;-84
2022/10/28 18:14:19;;;;;;;3.08;1.98;;;14.40;99.90;;;;;;6046749;23;20477;-84
2022/10/28 18:16:49;;;;;;;3.20;1.80;;;14.70;99.90;;;;;;6080485;23;20323;-84
2022/10/28 18:19:16;;;;;;;6.55;3.28;;;14.70;99.90;;;;;;6075088;23;20035;-84
2022/10/28 18:21:46;;;;;;;2.40;1.90;;;14.70;99.90;;;;;;6056766;23;20021;-85
2022/10/28 18:24:14;;;;;;;2.05;1.80;;;14.70;99.90;;;;;;6032530;23;20670;-85
2022/10/28 18:26:48;;;;;;;2.70;1.45;;;14.70;99.90;;;;;;6064675;23;20023;-87
2022/10/28 18:29:16;;;;;;;8.13;3.03;;;14.60;99.90;;;;;;6047695;23;20457;-86
2022/10/28 18:31:48;;;;;;;3.60;1.65;;;14.60;99.90;;;;;;6048198;23;20022;-87
2022/10/28 18:34:22;;;;;;;4.55;1.88;;;14.60;99.90;;;;;;6026627;23;20026;-84
2022/10/28 18:36:50;;;;;;;2.78;1.70;;;14.60;99.90;;;;;;6072698;23;20026;-85
2022/10/28 18:39:25;;;;;;;1.80;1.35;;;14.60;99.90;;;;;;6036313;23;20019;-85
2022/10/28 18:41:53;;;;;;;3.22;2.30;;;14.50;99.90;;;;;;6048679;23;20026;-86
2022/10/28 18:44:25;;;;;;;8.30;1.67;;;14.30;99.90;;;;;;6073217;23;20026;-84
2022/10/28 18:46:56;;;;;;;2.55;1.75;;;14.20;99.90;;;;;;6078017;23;20018;-87
2022/10/28 18:49:57;;;;;;;3.08;1.58;;;14.20;99.90;;;;;;6047722;23;20024;31
2022/10/28 18:52:41;;;;;;;3.30;2.42;;;14.10;99.90;;;;;;6047781;23;20037;-89
2022/10/28 18:56:38;;;;;;;6.53;2.15;;;14.00;99.90;;;;;;6063649;23;20042;-91
2022/10/28 18:59:40;;;;;;;3.22;1.88;;;13.80;99.90;;;;;;6051464;23;20026;-89
2022/10/28 19:02:31;;;;;;;9.63;4.20;;;13.90;99.90;;;;;;6056636;23;20014;-88
2022/10/28 19:04:58;;;;;;;4.03;3.42;;;14.00;99.90;;;;;;6068729;23;20027;-84
2022/10/28 19:07:27;;;;;;;6.15;1.40;;;13.80;99.90;;;;;;6105686;23;20365;-84
2022/10/28 19:10:01;;;;;;;3.25;2.60;;;13.60;99.90;;;;;;6111832;23;20018;-86
2022/10/28 19:12:47;;;;;;;3.30;2.03;;;13.50;99.90;;;;;;6066762;23;20041;-86
2022/10/28 19:15:19;;;;;;;5.13;2.55;;;13.50;99.90;;;;;;6076239;23;20034;-85
2022/10/28 19:18:26;;;;;;;2.97;2.72;;;13.40;99.90;;;;;;6053245;23;20025;-88
2022/10/28 19:21:18;;;;;;;1.77;1.38;;;13.20;99.90;;;;;;5982587;23;20516;-85
2022/10/28 19:24:06;;;;;;;2.50;2.05;;;13.20;99.90;;;;;;6059070;23;20029;-86
2022/10/28 19:37:38;;;;;;;1.83;1.73;;;12.90;99.90;;;;;;6069073;23;20023;-84
2022/10/28 19:40:09;;;;;;;4.73;1.90;;;12.80;99.90;;;;;;6064806;23;20029;-84
2022/10/28 19:42:37;;;;;;;4.43;2.20;;;12.80;99.90;;;;;;6042062;23;20042;-84
2022/10/28 19:45:06;;;;;;;4.90;2.67;;;12.90;99.90;;;;;;6101709;23;20027;-84
2022/10/28 19:47:33;;;;;;;3.45;1.75;;;13.10;99.90;;;;;;6071920;23;20037;-84
2022/10/28 19:50:03;;;;;;;5.97;2.58;;;13.20;99.90;;;;;;6067368;23;20026;-84
2022/10/28 19:52:31;;;;;;;2.22;1.80;;;13.20;99.90;;;;;;6066976;23;20031;-84
2022/10/28 19:54:58;;;;;;;7.40;2.15;;;13.30;99.90;;;;;;6042217;23;20022;-84
2022/10/28 19:57:27;;;;;;;6.13;2.47;;;13.40;99.90;;;;;;6100243;23;20019;-84
2022/10/28 19:59:57;;;;;;;3.03;2.50;;;13.40;99.90;;;;;;6069130;23;20030;-84
2022/10/28 20:02:27;;;;;;;9.65;2.20;;;13.40;99.90;;;;;;6066773;23;20019;-84
2022/10/28 20:04:56;;;;;;;3.20;2.90;;;13.40;99.90;;;;;;6043797;23;20026;-84
2022/10/28 20:07:23;;;;;;;2.08;1.88;;;13.30;99.90;;;;;;6071198;23;20019;-84
2022/10/28 20:09:56;;;;;;;2.92;2.63;;;13.20;99.90;;;;;;6067229;23;20025;-85
2022/10/28 20:12:28;;;;;;;3.42;2.85;;;13.00;99.90;;;;;;6021376;23;20323;-84
2022/10/28 20:14:56;;;;;;;7.15;2.35;;;12.60;99.90;;;;;;6041427;23;20459;-84
2022/10/28 20:17:24;;;;;;;4.45;2.75;;;12.50;99.90;;;;;;6075083;23;20015;-84
2022/10/28 20:19:51;;;;;;;2.25;1.80;;;12.50;99.90;;;;;;6042037;23;20026;-84
2022/10/28 20:22:21;;;;;;;3.38;2.15;;;12.50;99.90;;;;;;6099628;23;20033;-84
2022/10/28 20:24:49;;;;;;;3.63;2.95;;;12.40;99.90;;;;;;5996527;23;20015;-84
2022/10/28 20:27:19;;;;;;;4.38;2.65;;;12.30;99.90;;;;;;6065361;23;20018;-84
2022/10/28 20:29:49;;;;;;;38.10;6.47;;;12.40;99.90;;;;;;6099820;23;20331;-84
2022/10/28 20:32:26;;;;;;;4.05;2.83;;;12.40;99.90;;;;;;6042647;23;20030;-84
2022/10/28 20:35:01;;;;;;;2.35;2.20;;;12.50;99.90;;;;;;6089946;23;20023;-85
2022/10/28 20:37:31;;;;;;;3.22;2.78;;;12.60;99.90;;;;;;6043642;23;20022;-85
2022/10/28 20:40:02;;;;;;;4.40;2.45;;;12.60;99.90;;;;;;6066351;23;20077;-86
2022/10/28 20:42:34;;;;;;;9.95;2.33;;;12.70;99.90;;;;;;6066135;23;20030;-84
2022/10/28 20:45:02;;;;;;;1.60;1.50;;;12.70;99.90;;;;;;6066597;23;20483;-84
2022/10/28 20:47:32;;;;;;;4.80;2.57;;;12.80;99.90;;;;;;6070805;23;20027;-85
2022/10/28 20:50:00;;;;;;;4.55;2.10;;;12.90;99.90;;;;;;6066866;23;20267;-85
2022/10/28 20:52:27;;;;;;;8.60;3.65;;;13.00;99.90;;;;;;6064262;23;20023;-84
2022/10/28 20:54:55;;;;;;;10.82;2.60;;;12.80;99.90;;;;;;6096886;23;20022;-84
2022/10/28 20:57:23;;;;;;;3.63;3.08;;;12.60;99.90;;;;;;6066261;23;20022;-84
2022/10/28 20:59:52;;;;;;;4.25;2.92;;;12.60;99.90;;;;;;6042487;23;20019;-84
2022/10/28 21:02:20;;;;;;;5.32;1.65;;;12.70;99.90;;;;;;6065815;23;20030;-84
2022/10/28 21:04:48;;;;;;;1.80;1.52;;;12.90;99.90;;;;;;6042105;23;20023;-84
2022/10/28 21:07:15;;;;;;;2.45;2.33;;;13.00;99.90;;;;;;6042276;23;20019;-84
2022/10/28 21:09:43;;;;;;;7.80;3.17;;;13.00;99.90;;;;;;6066764;23;20030;-84
2022/10/28 21:12:10;;;;;;;9.63;5.40;;;13.20;99.90;;;;;;6091666;23;20055;-84
2022/10/28 21:14:37;;;;;;;7.22;2.20;;;13.30;99.90;;;;;;6075329;23;20022;-84
2022/10/28 21:17:05;;;;;;;6.90;2.35;;;13.00;99.90;;;;;;6099902;23;20019;-85
2022/10/28 21:19:34;;;;;;;7.20;2.10;;;12.90;99.90;;;;;;6065909;23;20023;-85
2022/10/28 21:22:02;;;;;;;3.13;1.95;;;12.90;99.90;;;;;;6066314;23;20038;-84
2022/10/28 21:24:32;;;;;;;3.15;1.52;;;12.90;99.90;;;;;;6054917;23;20030;-85
2022/10/28 21:27:00;;;;;;;5.50;3.58;;;13.20;99.90;;;;;;6040430;23;20029;-85
2022/10/28 21:29:59;;;;;;;1.90;1.80;;;13.30;99.90;;;;;;6042699;23;20019;-85
2022/10/28 21:32:57;;;;;;;5.18;1.75;;;13.40;99.90;;;;;;6044636;23;20443;-86
2022/10/28 21:36:27;;;;;;;4.18;1.88;;;13.30;99.90;;;;;;6056402;23;20030;-85
2022/10/28 21:39:55;;;;;;;7.13;1.80;;;13.30;99.90;;;;;;6031338;23;20023;-85
2022/10/28 21:43:03;;;;;;;1.52;1.30;;;13.30;99.90;;;;;;6003891;23;20027;-85
2022/10/28 21:46:16;;;;;;;4.80;4.25;;;13.40;99.90;;;;;;6020918;23;20018;-85
2022/10/28 21:49:46;;;;;;;1.80;1.60;;;13.50;99.90;;;;;;5887490;24;20036;-86
2022/10/28 21:52:35;;;;;;;3.92;1.98;;;13.40;99.90;;;;;;5938349;23;20028;-86
2022/10/28 21:55:25;;;;;;;;;;;;;;;;;;;;;
2022/10/28 21:59:00;;;;;;;1.95;1.55;;;13.40;99.90;;;;;;5927084;24;20047;-86
2022/10/28 22:02:01;;;;;;;7.43;3.30;;;13.50;99.90;;;;;;5906703;24;20033;-86
2022/10/28 22:05:03;;;;;;;5.43;3.33;;;13.40;99.90;;;;;;5888683;24;20044;-85
2022/10/28 22:07:54;;;;;;;3.40;2.22;;;13.20;99.90;;;;;;5950344;23;20030;-85